sensor_id;sensor_type;location;lat;lon;timestamp;temperature;humidity
39219;DHT22;24934;52.752;6.964;2023-01-04T00:00:10;7.40;99.90
39219;DHT22;24934;52.752;6.964;2023-01-04T00:02:36;7.40;99.90
39219;DHT22;24934;52.752;6.964;2023-01-04T00:05:02;7.40;99.90
39219;DHT22;24934;52.752;6.964;2023-01-04T00:07:28;7.40;99.90
39219;DHT22;24934;52.752;6.964;2023-01-04T00:09:54;7.40;99.90
39219;DHT22;24934;52.752;6.964;2023-01-04T00:12:19;7.40;99.90
39219;DHT22;24934;52.752;6.964;2023-01-04T00:14:45;7.40;99.90
39219;DHT22;24934;52.752;6.964;2023-01-04T00:17:11;7.40;99.90
39219;DHT22;24934;52.752;6.964;2023-01-04T00:19:36;7.40;99.90
39219;DHT22;24934;52.752;6.964;2023-01-04T00:22:02;7.40;99.90
39219;DHT22;24934;52.752;6.964;2023-01-04T00:24:28;7.40;99.90
39219;DHT22;24934;52.752;6.964;2023-01-04T00:26:53;7.40;99.90
39219;DHT22;24934;52.752;6.964;2023-01-04T00:29:19;7.40;99.90
39219;DHT22;24934;52.752;6.964;2023-01-04T00:31:44;7.40;99.90
39219;DHT22;24934;52.752;6.964;2023-01-04T00:34:13;7.40;99.90
39219;DHT22;24934;52.752;6.964;2023-01-04T00:36:39;7.40;99.90
39219;DHT22;24934;52.752;6.964;2023-01-04T00:39:05;7.40;99.90
39219;DHT22;24934;52.752;6.964;2023-01-04T00:41:41;7.40;99.90
39219;DHT22;24934;52.752;6.964;2023-01-04T00:44:08;7.50;99.90
39219;DHT22;24934;52.752;6.964;2023-01-04T00:46:35;7.40;99.90
39219;DHT22;24934;52.752;6.964;2023-01-04T00:49:01;7.40;99.90
39219;DHT22;24934;52.752;6.964;2023-01-04T00:51:28;7.40;99.90
39219;DHT22;24934;52.752;6.964;2023-01-04T00:53:58;7.40;99.90
39219;DHT22;24934;52.752;6.964;2023-01-04T00:56:26;7.40;99.90
39219;DHT22;24934;52.752;6.964;2023-01-04T00:58:56;7.40;99.90
39219;DHT22;24934;52.752;6.964;2023-01-04T01:01:23;7.40;99.90
39219;DHT22;24934;52.752;6.964;2023-01-04T01:03:57;7.30;99.90
39219;DHT22;24934;52.752;6.964;2023-01-04T01:06:23;7.30;99.90
39219;DHT22;24934;52.752;6.964;2023-01-04T01:08:50;7.20;99.90
39219;DHT22;24934;52.752;6.964;2023-01-04T01:11:16;7.20;99.90
39219;DHT22;24934;52.752;6.964;2023-01-04T01:13:43;7.20;99.90
39219;DHT22;24934;52.752;6.964;2023-01-04T01:16:13;7.20;99.90
39219;DHT22;24934;52.752;6.964;2023-01-04T01:18:40;7.20;99.90
39219;DHT22;24934;52.752;6.964;2023-01-04T01:21:10;7.20;99.90
39219;DHT22;24934;52.752;6.964;2023-01-04T01:23:36;7.20;99.90
39219;DHT22;24934;52.752;6.964;2023-01-04T01:26:04;7.20;99.90
39219;DHT22;24934;52.752;6.964;2023-01-04T01:28:30;7.20;99.90
39219;DHT22;24934;52.752;6.964;2023-01-04T01:30:56;7.20;99.90
39219;DHT22;24934;52.752;6.964;2023-01-04T01:33:25;7.20;99.90
39219;DHT22;24934;52.752;6.964;2023-01-04T01:35:51;7.30;99.90
39219;DHT22;24934;52.752;6.964;2023-01-04T01:38:17;7.20;99.90
39219;DHT22;24934;52.752;6.964;2023-01-04T01:40:44;7.20;99.90
39219;DHT22;24934;52.752;6.964;2023-01-04T01:43:18;7.20;99.90
39219;DHT22;24934;52.752;6.964;2023-01-04T01:45:45;7.20;99.90
39219;DHT22;24934;52.752;6.964;2023-01-04T01:48:16;7.20;99.90
39219;DHT22;24934;52.752;6.964;2023-01-04T01:50:47;7.20;99.90
39219;DHT22;24934;52.752;6.964;2023-01-04T01:53:14;7.20;99.90
39219;DHT22;24934;52.752;6.964;2023-01-04T01:55:42;7.20;99.90
39219;DHT22;24934;52.752;6.964;2023-01-04T01:58:13;7.20;99.90
39219;DHT22;24934;52.752;6.964;2023-01-04T02:00:39;7.20;99.90
39219;DHT22;24934;52.752;6.964;2023-01-04T02:03:18;7.20;99.90
39219;DHT22;24934;52.752;6.964;2023-01-04T02:05:48;7.20;99.90
39219;DHT22;24934;52.752;6.964;2023-01-04T02:08:14;7.20;99.90
39219;DHT22;24934;52.752;6.964;2023-01-04T02:10:40;7.20;99.90
39219;DHT22;24934;52.752;6.964;2023-01-04T02:13:11;7.30;99.90
39219;DHT22;24934;52.752;6.964;2023-01-04T02:15:59;7.30;99.90
39219;DHT22;24934;52.752;6.964;2023-01-04T02:18:34;7.30;99.90
39219;DHT22;24934;52.752;6.964;2023-01-04T02:21:05;7.30;99.90
39219;DHT22;24934;52.752;6.964;2023-01-04T02:24:14;7.30;99.90
39219;DHT22;24934;52.752;6.964;2023-01-04T02:26:53;7.30;99.90
39219;DHT22;24934;52.752;6.964;2023-01-04T02:32:55;7.40;99.90
39219;DHT22;24934;52.752;6.964;2023-01-04T02:35:33;7.40;99.90
39219;DHT22;24934;52.752;6.964;2023-01-04T02:41:00;7.40;99.90
39219;DHT22;24934;52.752;6.964;2023-01-04T02:43:38;7.40;99.90
39219;DHT22;24934;52.752;6.964;2023-01-04T02:46:34;7.40;99.90
39219;DHT22;24934;52.752;6.964;2023-01-04T02:49:02;7.50;99.90
39219;DHT22;24934;52.752;6.964;2023-01-04T02:52:00;7.50;99.90
39219;DHT22;24934;52.752;6.964;2023-01-04T02:54:28;7.50;99.90
39219;DHT22;24934;52.752;6.964;2023-01-04T02:59:57;7.50;99.90
39219;DHT22;24934;52.752;6.964;2023-01-04T03:06:16;7.60;99.90
39219;DHT22;24934;52.752;6.964;2023-01-04T03:09:25;7.70;99.90
39219;DHT22;24934;52.752;6.964;2023-01-04T03:11:49;7.60;99.90
39219;DHT22;24934;52.752;6.964;2023-01-04T03:14:41;7.70;99.90
39219;DHT22;24934;52.752;6.964;2023-01-04T03:17:12;7.70;99.90
39219;DHT22;24934;52.752;6.964;2023-01-04T03:19:39;7.70;99.90
39219;DHT22;24934;52.752;6.964;2023-01-04T03:22:38;7.80;99.90
39219;DHT22;24934;52.752;6.964;2023-01-04T03:25:29;7.80;99.90
39219;DHT22;24934;52.752;6.964;2023-01-04T03:28:16;7.80;99.90
39219;DHT22;24934;52.752;6.964;2023-01-04T03:31:37;7.90;99.90
39219;DHT22;24934;52.752;6.964;2023-01-04T03:34:23;8.00;99.90
39219;DHT22;24934;52.752;6.964;2023-01-04T03:40:28;8.10;99.90
39219;DHT22;24934;52.752;6.964;2023-01-04T03:43:22;8.20;99.90
39219;DHT22;24934;52.752;6.964;2023-01-04T03:49:44;8.30;99.90
39219;DHT22;24934;52.752;6.964;2023-01-04T03:52:13;8.30;99.90
39219;DHT22;24934;52.752;6.964;2023-01-04T03:54:43;8.40;99.90
39219;DHT22;24934;52.752;6.964;2023-01-04T03:57:12;8.40;99.90
39219;DHT22;24934;52.752;6.964;2023-01-04T03:59:54;8.40;99.90
39219;DHT22;24934;52.752;6.964;2023-01-04T04:02:27;8.40;99.90
39219;DHT22;24934;52.752;6.964;2023-01-04T04:04:53;8.40;99.90
39219;DHT22;24934;52.752;6.964;2023-01-04T04:07:37;8.40;99.90
39219;DHT22;24934;52.752;6.964;2023-01-04T04:10:21;8.50;99.90
39219;DHT22;24934;52.752;6.964;2023-01-04T04:12:47;8.50;99.90
39219;DHT22;24934;52.752;6.964;2023-01-04T04:15:13;8.50;99.90
39219;DHT22;24934;52.752;6.964;2023-01-04T04:17:39;8.50;99.90
39219;DHT22;24934;52.752;6.964;2023-01-04T04:20:05;8.50;99.90
39219;DHT22;24934;52.752;6.964;2023-01-04T04:22:31;8.50;99.90
39219;DHT22;24934;52.752;6.964;2023-01-04T04:24:56;8.50;99.90
39219;DHT22;24934;52.752;6.964;2023-01-04T04:27:22;8.60;99.90
39219;DHT22;24934;52.752;6.964;2023-01-04T04:29:50;8.60;99.90
39219;DHT22;24934;52.752;6.964;2023-01-04T04:32:16;8.60;99.90
39219;DHT22;24934;52.752;6.964;2023-01-04T04:34:42;8.70;99.90
39219;DHT22;24934;52.752;6.964;2023-01-04T04:37:07;8.70;99.90
39219;DHT22;24934;52.752;6.964;2023-01-04T04:39:33;8.70;99.90
39219;DHT22;24934;52.752;6.964;2023-01-04T04:41:59;8.80;99.90
39219;DHT22;24934;52.752;6.964;2023-01-04T04:44:24;8.80;99.90
39219;DHT22;24934;52.752;6.964;2023-01-04T04:46:50;8.80;99.90
39219;DHT22;24934;52.752;6.964;2023-01-04T04:49:17;8.80;99.90
39219;DHT22;24934;52.752;6.964;2023-01-04T04:51:43;8.90;99.90
39219;DHT22;24934;52.752;6.964;2023-01-04T04:54:14;8.90;99.90
39219;DHT22;24934;52.752;6.964;2023-01-04T04:56:40;8.90;99.90
39219;DHT22;24934;52.752;6.964;2023-01-04T04:59:06;8.90;99.90
39219;DHT22;24934;52.752;6.964;2023-01-04T05:01:32;8.90;99.90
39219;DHT22;24934;52.752;6.964;2023-01-04T05:03:57;9.00;99.90
39219;DHT22;24934;52.752;6.964;2023-01-04T05:06:23;9.00;99.90
39219;DHT22;24934;52.752;6.964;2023-01-04T05:08:49;9.00;99.90
39219;DHT22;24934;52.752;6.964;2023-01-04T05:11:15;9.00;99.90
39219;DHT22;24934;52.752;6.964;2023-01-04T05:13:41;9.00;99.90
39219;DHT22;24934;52.752;6.964;2023-01-04T05:16:08;9.00;99.90
39219;DHT22;24934;52.752;6.964;2023-01-04T05:18:35;9.00;99.90
39219;DHT22;24934;52.752;6.964;2023-01-04T05:21:01;9.10;99.90
39219;DHT22;24934;52.752;6.964;2023-01-04T05:23:30;9.10;99.90
39219;DHT22;24934;52.752;6.964;2023-01-04T05:25:59;9.10;99.90
39219;DHT22;24934;52.752;6.964;2023-01-04T05:28:26;9.10;99.90
39219;DHT22;24934;52.752;6.964;2023-01-04T05:30:52;9.20;99.90
39219;DHT22;24934;52.752;6.964;2023-01-04T05:33:29;9.20;99.90
39219;DHT22;24934;52.752;6.964;2023-01-04T05:35:58;9.20;99.90
39219;DHT22;24934;52.752;6.964;2023-01-04T05:38:24;9.30;99.90
39219;DHT22;24934;52.752;6.964;2023-01-04T05:40:50;9.30;99.90
39219;DHT22;24934;52.752;6.964;2023-01-04T05:43:17;9.30;99.90
39219;DHT22;24934;52.752;6.964;2023-01-04T05:45:46;9.30;99.90
39219;DHT22;24934;52.752;6.964;2023-01-04T05:48:12;9.30;99.90
39219;DHT22;24934;52.752;6.964;2023-01-04T05:50:38;9.40;99.90
39219;DHT22;24934;52.752;6.964;2023-01-04T05:53:05;9.40;99.90
39219;DHT22;24934;52.752;6.964;2023-01-04T05:55:31;9.40;99.90
39219;DHT22;24934;52.752;6.964;2023-01-04T05:57:57;9.40;99.90
39219;DHT22;24934;52.752;6.964;2023-01-04T06:00:22;9.40;99.90
39219;DHT22;24934;52.752;6.964;2023-01-04T06:02:48;9.50;99.90
39219;DHT22;24934;52.752;6.964;2023-01-04T06:05:14;9.50;99.90
39219;DHT22;24934;52.752;6.964;2023-01-04T06:07:41;9.50;99.90
39219;DHT22;24934;52.752;6.964;2023-01-04T06:10:10;9.50;99.90
39219;DHT22;24934;52.752;6.964;2023-01-04T06:12:36;9.60;99.90
39219;DHT22;24934;52.752;6.964;2023-01-04T06:15:02;9.60;99.90
39219;DHT22;24934;52.752;6.964;2023-01-04T06:17:27;9.60;99.90
39219;DHT22;24934;52.752;6.964;2023-01-04T06:19:53;9.60;99.90
39219;DHT22;24934;52.752;6.964;2023-01-04T06:22:19;9.60;99.90
39219;DHT22;24934;52.752;6.964;2023-01-04T06:24:45;9.70;99.90
39219;DHT22;24934;52.752;6.964;2023-01-04T06:27:11;9.60;99.90
39219;DHT22;24934;52.752;6.964;2023-01-04T06:29:39;9.70;99.90
39219;DHT22;24934;52.752;6.964;2023-01-04T06:32:05;9.70;99.90
39219;DHT22;24934;52.752;6.964;2023-01-04T06:34:30;9.70;99.90
39219;DHT22;24934;52.752;6.964;2023-01-04T06:36:56;9.70;99.90
39219;DHT22;24934;52.752;6.964;2023-01-04T06:39:25;9.70;99.90
39219;DHT22;24934;52.752;6.964;2023-01-04T06:41:51;9.70;99.90
39219;DHT22;24934;52.752;6.964;2023-01-04T06:44:16;9.70;99.90
39219;DHT22;24934;52.752;6.964;2023-01-04T06:46:43;9.70;99.90
39219;DHT22;24934;52.752;6.964;2023-01-04T06:49:12;9.70;99.90
39219;DHT22;24934;52.752;6.964;2023-01-04T06:51:39;9.70;99.90
39219;DHT22;24934;52.752;6.964;2023-01-04T06:54:08;9.70;99.90
39219;DHT22;24934;52.752;6.964;2023-01-04T06:56:34;9.70;99.90
39219;DHT22;24934;52.752;6.964;2023-01-04T06:59:00;9.70;99.90
39219;DHT22;24934;52.752;6.964;2023-01-04T07:01:30;9.70;99.90
39219;DHT22;24934;52.752;6.964;2023-01-04T07:03:55;9.70;99.90
39219;DHT22;24934;52.752;6.964;2023-01-04T07:06:21;9.70;99.90
39219;DHT22;24934;52.752;6.964;2023-01-04T07:08:47;9.70;99.90
39219;DHT22;24934;52.752;6.964;2023-01-04T07:11:12;9.70;99.90
39219;DHT22;24934;52.752;6.964;2023-01-04T07:13:42;9.70;99.90
39219;DHT22;24934;52.752;6.964;2023-01-04T07:16:08;9.70;99.90
39219;DHT22;24934;52.752;6.964;2023-01-04T07:18:33;9.70;99.90
39219;DHT22;24934;52.752;6.964;2023-01-04T07:21:00;9.80;99.90
39219;DHT22;24934;52.752;6.964;2023-01-04T07:23:27;9.80;99.90
39219;DHT22;24934;52.752;6.964;2023-01-04T07:26:00;9.80;99.90
39219;DHT22;24934;52.752;6.964;2023-01-04T07:28:28;9.80;99.90
39219;DHT22;24934;52.752;6.964;2023-01-04T07:31:13;9.80;99.90
39219;DHT22;24934;52.752;6.964;2023-01-04T07:33:40;9.80;99.90
39219;DHT22;24934;52.752;6.964;2023-01-04T07:36:06;9.80;99.90
39219;DHT22;24934;52.752;6.964;2023-01-04T07:38:33;9.90;99.90
39219;DHT22;24934;52.752;6.964;2023-01-04T07:41:02;9.90;99.90
39219;DHT22;24934;52.752;6.964;2023-01-04T07:43:27;9.90;99.90
39219;DHT22;24934;52.752;6.964;2023-01-04T07:45:53;9.90;99.90
39219;DHT22;24934;52.752;6.964;2023-01-04T07:48:18;9.90;99.90
39219;DHT22;24934;52.752;6.964;2023-01-04T07:50:44;9.90;99.90
39219;DHT22;24934;52.752;6.964;2023-01-04T07:53:10;9.90;99.90
39219;DHT22;24934;52.752;6.964;2023-01-04T07:55:39;9.90;99.90
39219;DHT22;24934;52.752;6.964;2023-01-04T07:58:04;9.90;99.90
39219;DHT22;24934;52.752;6.964;2023-01-04T08:00:30;9.90;99.90
39219;DHT22;24934;52.752;6.964;2023-01-04T08:02:56;9.90;99.90
39219;DHT22;24934;52.752;6.964;2023-01-04T08:05:21;10.00;99.90
39219;DHT22;24934;52.752;6.964;2023-01-04T08:07:49;10.00;99.90
39219;DHT22;24934;52.752;6.964;2023-01-04T08:10:15;10.00;99.90
39219;DHT22;24934;52.752;6.964;2023-01-04T08:12:41;10.00;99.90
39219;DHT22;24934;52.752;6.964;2023-01-04T08:15:06;10.00;99.90
39219;DHT22;24934;52.752;6.964;2023-01-04T08:17:32;10.10;99.90
39219;DHT22;24934;52.752;6.964;2023-01-04T08:19:58;10.10;99.90
39219;DHT22;24934;52.752;6.964;2023-01-04T08:22:25;10.10;99.90
39219;DHT22;24934;52.752;6.964;2023-01-04T08:24:51;10.10;99.90
39219;DHT22;24934;52.752;6.964;2023-01-04T08:27:17;10.10;99.90
39219;DHT22;24934;52.752;6.964;2023-01-04T08:29:42;10.20;99.90
39219;DHT22;24934;52.752;6.964;2023-01-04T08:32:08;10.20;99.90
39219;DHT22;24934;52.752;6.964;2023-01-04T08:34:33;10.20;99.90
39219;DHT22;24934;52.752;6.964;2023-01-04T08:37:00;10.30;99.90
39219;DHT22;24934;52.752;6.964;2023-01-04T08:39:26;10.30;99.90
39219;DHT22;24934;52.752;6.964;2023-01-04T08:41:53;10.30;99.90
39219;DHT22;24934;52.752;6.964;2023-01-04T08:44:21;10.30;99.90
39219;DHT22;24934;52.752;6.964;2023-01-04T08:46:47;10.40;99.90
39219;DHT22;24934;52.752;6.964;2023-01-04T08:49:14;10.40;99.90
39219;DHT22;24934;52.752;6.964;2023-01-04T08:51:40;10.40;99.90
39219;DHT22;24934;52.752;6.964;2023-01-04T08:54:06;10.40;99.90
39219;DHT22;24934;52.752;6.964;2023-01-04T08:56:31;10.40;99.90
39219;DHT22;24934;52.752;6.964;2023-01-04T08:58:57;10.40;99.90
39219;DHT22;24934;52.752;6.964;2023-01-04T09:01:23;10.40;99.90
39219;DHT22;24934;52.752;6.964;2023-01-04T09:03:49;10.40;99.90
39219;DHT22;24934;52.752;6.964;2023-01-04T09:06:15;10.40;99.90
39219;DHT22;24934;52.752;6.964;2023-01-04T09:08:42;10.40;99.90
39219;DHT22;24934;52.752;6.964;2023-01-04T09:11:15;10.50;99.90
39219;DHT22;24934;52.752;6.964;2023-01-04T09:13:41;10.50;99.90
39219;DHT22;24934;52.752;6.964;2023-01-04T09:16:17;10.50;99.90
39219;DHT22;24934;52.752;6.964;2023-01-04T09:18:43;10.50;99.90
39219;DHT22;24934;52.752;6.964;2023-01-04T09:21:12;10.50;99.90
39219;DHT22;24934;52.752;6.964;2023-01-04T09:23:39;10.50;99.90
39219;DHT22;24934;52.752;6.964;2023-01-04T09:26:06;10.50;99.90
39219;DHT22;24934;52.752;6.964;2023-01-04T09:28:32;10.50;99.90
39219;DHT22;24934;52.752;6.964;2023-01-04T09:30:58;10.50;99.90
39219;DHT22;24934;52.752;6.964;2023-01-04T09:33:28;10.60;99.90
39219;DHT22;24934;52.752;6.964;2023-01-04T09:35:54;10.60;99.90
39219;DHT22;24934;52.752;6.964;2023-01-04T09:38:19;10.60;99.90
39219;DHT22;24934;52.752;6.964;2023-01-04T09:43:24;10.60;99.90
39219;DHT22;24934;52.752;6.964;2023-01-04T09:45:56;10.60;99.90
39219;DHT22;24934;52.752;6.964;2023-01-04T09:48:28;10.60;99.90
39219;DHT22;24934;52.752;6.964;2023-01-04T09:51:01;10.60;99.90
39219;DHT22;24934;52.752;6.964;2023-01-04T09:53:47;10.60;99.90
39219;DHT22;24934;52.752;6.964;2023-01-04T09:56:27;10.60;99.90
39219;DHT22;24934;52.752;6.964;2023-01-04T09:58:54;10.70;99.90
39219;DHT22;24934;52.752;6.964;2023-01-04T10:01:23;10.70;99.90
39219;DHT22;24934;52.752;6.964;2023-01-04T10:06:34;10.70;99.90
39219;DHT22;24934;52.752;6.964;2023-01-04T10:09:05;10.70;99.90
39219;DHT22;24934;52.752;6.964;2023-01-04T10:17:24;10.70;99.90
39219;DHT22;24934;52.752;6.964;2023-01-04T10:35:38;10.80;99.90
39219;DHT22;24934;52.752;6.964;2023-01-04T10:38:19;10.80;99.90
39219;DHT22;24934;52.752;6.964;2023-01-04T10:40:47;10.80;99.90
39219;DHT22;24934;52.752;6.964;2023-01-04T10:43:34;10.80;99.90
39219;DHT22;24934;52.752;6.964;2023-01-04T10:46:10;10.80;99.90
39219;DHT22;24934;52.752;6.964;2023-01-04T10:48:56;10.90;99.90
39219;DHT22;24934;52.752;6.964;2023-01-04T10:51:35;10.90;99.90
39219;DHT22;24934;52.752;6.964;2023-01-04T10:54:21;10.90;99.90
39219;DHT22;24934;52.752;6.964;2023-01-04T10:56:59;10.90;99.90
39219;DHT22;24934;52.752;6.964;2023-01-04T11:02:46;10.90;99.90
39219;DHT22;24934;52.752;6.964;2023-01-04T11:05:19;10.90;99.90
39219;DHT22;24934;52.752;6.964;2023-01-04T11:07:59;10.90;99.90
39219;DHT22;24934;52.752;6.964;2023-01-04T11:10:46;10.90;99.90
39219;DHT22;24934;52.752;6.964;2023-01-04T11:13:16;10.90;99.90
39219;DHT22;24934;52.752;6.964;2023-01-04T11:15:43;11.00;99.90
39219;DHT22;24934;52.752;6.964;2023-01-04T11:18:10;11.00;99.90
39219;DHT22;24934;52.752;6.964;2023-01-04T11:20:41;11.00;99.90
39219;DHT22;24934;52.752;6.964;2023-01-04T11:23:14;11.00;99.90
39219;DHT22;24934;52.752;6.964;2023-01-04T11:25:51;11.00;99.90
39219;DHT22;24934;52.752;6.964;2023-01-04T11:31:22;11.10;99.90
39219;DHT22;24934;52.752;6.964;2023-01-04T11:34:00;11.10;99.90
39219;DHT22;24934;52.752;6.964;2023-01-04T11:36:33;11.10;99.90
39219;DHT22;24934;52.752;6.964;2023-01-04T11:39:00;11.10;99.90
39219;DHT22;24934;52.752;6.964;2023-01-04T11:41:26;11.10;99.90
39219;DHT22;24934;52.752;6.964;2023-01-04T11:44:04;11.10;99.90
39219;DHT22;24934;52.752;6.964;2023-01-04T11:46:32;11.10;99.90
39219;DHT22;24934;52.752;6.964;2023-01-04T11:48:58;11.10;99.90
39219;DHT22;24934;52.752;6.964;2023-01-04T11:56:23;11.30;99.90
39219;DHT22;24934;52.752;6.964;2023-01-04T12:01:46;11.30;99.90
39219;DHT22;24934;52.752;6.964;2023-01-04T12:04:23;11.30;99.90
39219;DHT22;24934;52.752;6.964;2023-01-04T12:07:51;11.40;99.90
39219;DHT22;24934;52.752;6.964;2023-01-04T12:09:46;11.40;99.90
39219;DHT22;24934;52.752;6.964;2023-01-04T12:12:13;11.40;99.90
39219;DHT22;24934;52.752;6.964;2023-01-04T12:14:48;11.40;99.90
39219;DHT22;24934;52.752;6.964;2023-01-04T12:17:25;11.40;99.90
39219;DHT22;24934;52.752;6.964;2023-01-04T12:19:54;11.50;99.90
39219;DHT22;24934;52.752;6.964;2023-01-04T12:22:39;11.50;99.90
39219;DHT22;24934;52.752;6.964;2023-01-04T12:25:53;11.50;99.90
39219;DHT22;24934;52.752;6.964;2023-01-04T12:27:54;11.50;99.90
39219;DHT22;24934;52.752;6.964;2023-01-04T12:30:33;11.50;99.90
39219;DHT22;24934;52.752;6.964;2023-01-04T12:33:37;11.60;99.90
39219;DHT22;24934;52.752;6.964;2023-01-04T12:36:18;11.60;99.90
39219;DHT22;24934;52.752;6.964;2023-01-04T12:52:55;11.50;99.90
39219;DHT22;24934;52.752;6.964;2023-01-04T12:58:00;11.50;99.90
39219;DHT22;24934;52.752;6.964;2023-01-04T13:05:49;11.30;99.90
39219;DHT22;24934;52.752;6.964;2023-01-04T13:08:16;11.30;99.90
39219;DHT22;24934;52.752;6.964;2023-01-04T13:10:46;11.30;99.90
39219;DHT22;24934;52.752;6.964;2023-01-04T13:13:33;11.30;99.90
39219;DHT22;24934;52.752;6.964;2023-01-04T13:16:18;11.30;99.90
39219;DHT22;24934;52.752;6.964;2023-01-04T13:18:58;11.30;99.90
39219;DHT22;24934;52.752;6.964;2023-01-04T13:21:40;11.40;99.90
39219;DHT22;24934;52.752;6.964;2023-01-04T13:26:45;11.40;99.90
39219;DHT22;24934;52.752;6.964;2023-01-04T13:29:27;11.40;99.90
39219;DHT22;24934;52.752;6.964;2023-01-04T13:32:01;11.40;99.90
39219;DHT22;24934;52.752;6.964;2023-01-04T13:34:53;11.40;99.90
39219;DHT22;24934;52.752;6.964;2023-01-04T13:37:30;11.40;99.90
39219;DHT22;24934;52.752;6.964;2023-01-04T13:42:49;11.40;99.90
39219;DHT22;24934;52.752;6.964;2023-01-04T13:48:12;11.40;99.90
39219;DHT22;24934;52.752;6.964;2023-01-04T13:50:43;11.40;99.90
39219;DHT22;24934;52.752;6.964;2023-01-04T13:53:23;11.40;99.90
39219;DHT22;24934;52.752;6.964;2023-01-04T13:56:00;11.40;99.90
39219;DHT22;24934;52.752;6.964;2023-01-04T13:58:29;11.40;99.90
39219;DHT22;24934;52.752;6.964;2023-01-04T14:01:10;11.40;99.90
39219;DHT22;24934;52.752;6.964;2023-01-04T14:03:47;11.50;99.90
39219;DHT22;24934;52.752;6.964;2023-01-04T14:09:02;11.50;99.90
39219;DHT22;24934;52.752;6.964;2023-01-04T14:20:05;11.50;99.90
39219;DHT22;24934;52.752;6.964;2023-01-04T14:22:57;11.50;99.90
39219;DHT22;24934;52.752;6.964;2023-01-04T14:25:39;11.50;99.90
39219;DHT22;24934;52.752;6.964;2023-01-04T14:33:30;11.50;99.90
39219;DHT22;24934;52.752;6.964;2023-01-04T14:41:34;11.40;99.90
39219;DHT22;24934;52.752;6.964;2023-01-04T14:44:10;11.40;99.90
39219;DHT22;24934;52.752;6.964;2023-01-04T14:46:37;11.40;99.90
39219;DHT22;24934;52.752;6.964;2023-01-04T14:49:04;11.40;99.90
39219;DHT22;24934;52.752;6.964;2023-01-04T14:54:14;11.40;99.90
39219;DHT22;24934;52.752;6.964;2023-01-04T14:56:44;11.40;99.90
39219;DHT22;24934;52.752;6.964;2023-01-04T14:59:10;11.40;99.90
39219;DHT22;24934;52.752;6.964;2023-01-04T15:01:36;11.40;99.90
39219;DHT22;24934;52.752;6.964;2023-01-04T15:04:05;11.40;99.90
39219;DHT22;24934;52.752;6.964;2023-01-04T15:06:33;11.40;99.90
39219;DHT22;24934;52.752;6.964;2023-01-04T15:08:59;11.40;99.90
39219;DHT22;24934;52.752;6.964;2023-01-04T15:11:25;11.50;99.90
39219;DHT22;24934;52.752;6.964;2023-01-04T15:13:53;11.40;99.90
39219;DHT22;24934;52.752;6.964;2023-01-04T15:16:19;11.40;99.90
39219;DHT22;24934;52.752;6.964;2023-01-04T15:18:45;11.40;99.90
39219;DHT22;24934;52.752;6.964;2023-01-04T15:21:12;11.40;99.90
39219;DHT22;24934;52.752;6.964;2023-01-04T15:23:39;11.30;99.90
39219;DHT22;24934;52.752;6.964;2023-01-04T15:26:08;11.30;99.90
39219;DHT22;24934;52.752;6.964;2023-01-04T15:28:35;11.30;99.90
39219;DHT22;24934;52.752;6.964;2023-01-04T15:31:08;11.30;99.90
39219;DHT22;24934;52.752;6.964;2023-01-04T15:33:34;11.30;99.90
39219;DHT22;24934;52.752;6.964;2023-01-04T15:36:06;11.30;99.90
39219;DHT22;24934;52.752;6.964;2023-01-04T15:38:33;11.20;99.90
39219;DHT22;24934;52.752;6.964;2023-01-04T15:41:01;11.30;99.90
39219;DHT22;24934;52.752;6.964;2023-01-04T15:43:27;11.30;99.90
39219;DHT22;24934;52.752;6.964;2023-01-04T15:45:53;11.30;99.90
39219;DHT22;24934;52.752;6.964;2023-01-04T15:48:22;11.30;99.90
39219;DHT22;24934;52.752;6.964;2023-01-04T15:50:48;11.30;99.90
39219;DHT22;24934;52.752;6.964;2023-01-04T15:53:14;11.30;99.90
39219;DHT22;24934;52.752;6.964;2023-01-04T15:55:40;11.20;99.90
39219;DHT22;24934;52.752;6.964;2023-01-04T15:58:06;11.30;99.90
39219;DHT22;24934;52.752;6.964;2023-01-04T16:00:31;11.30;99.90
39219;DHT22;24934;52.752;6.964;2023-01-04T16:02:57;11.30;99.90
39219;DHT22;24934;52.752;6.964;2023-01-04T16:05:26;11.30;99.90
39219;DHT22;24934;52.752;6.964;2023-01-04T16:07:51;11.30;99.90
39219;DHT22;24934;52.752;6.964;2023-01-04T16:10:17;11.30;99.90
39219;DHT22;24934;52.752;6.964;2023-01-04T16:12:43;11.30;99.90
39219;DHT22;24934;52.752;6.964;2023-01-04T16:17:38;11.20;99.90
39219;DHT22;24934;52.752;6.964;2023-01-04T16:20:05;11.20;99.90
39219;DHT22;24934;52.752;6.964;2023-01-04T16:22:31;11.20;99.90
39219;DHT22;24934;52.752;6.964;2023-01-04T16:24:57;11.20;99.90
39219;DHT22;24934;52.752;6.964;2023-01-04T16:27:22;11.20;99.90
39219;DHT22;24934;52.752;6.964;2023-01-04T16:29:48;11.10;99.90
39219;DHT22;24934;52.752;6.964;2023-01-04T16:32:17;11.10;99.90
39219;DHT22;24934;52.752;6.964;2023-01-04T16:34:43;11.10;99.90
39219;DHT22;24934;52.752;6.964;2023-01-04T16:37:08;11.10;99.90
39219;DHT22;24934;52.752;6.964;2023-01-04T16:39:34;11.10;99.90
39219;DHT22;24934;52.752;6.964;2023-01-04T16:42:00;11.10;99.90
39219;DHT22;24934;52.752;6.964;2023-01-04T16:44:25;11.10;99.90
39219;DHT22;24934;52.752;6.964;2023-01-04T16:46:51;11.10;99.90
39219;DHT22;24934;52.752;6.964;2023-01-04T16:49:17;11.10;99.90
39219;DHT22;24934;52.752;6.964;2023-01-04T16:51:44;11.10;99.90
39219;DHT22;24934;52.752;6.964;2023-01-04T16:54:15;11.10;99.90
39219;DHT22;24934;52.752;6.964;2023-01-04T16:56:42;11.10;99.90
39219;DHT22;24934;52.752;6.964;2023-01-04T16:59:11;11.10;99.90
39219;DHT22;24934;52.752;6.964;2023-01-04T17:01:37;11.10;99.90
39219;DHT22;24934;52.752;6.964;2023-01-04T17:04:05;11.10;99.90
39219;DHT22;24934;52.752;6.964;2023-01-04T17:06:39;11.10;99.90
39219;DHT22;24934;52.752;6.964;2023-01-04T17:09:05;11.00;99.90
39219;DHT22;24934;52.752;6.964;2023-01-04T17:11:34;11.00;99.90
39219;DHT22;24934;52.752;6.964;2023-01-04T17:14:01;11.00;99.90
39219;DHT22;24934;52.752;6.964;2023-01-04T17:16:28;11.00;99.90
39219;DHT22;24934;52.752;6.964;2023-01-04T17:18:54;11.00;99.90
39219;DHT22;24934;52.752;6.964;2023-01-04T17:21:25;10.90;99.90
39219;DHT22;24934;52.752;6.964;2023-01-04T17:23:53;10.90;99.90
39219;DHT22;24934;52.752;6.964;2023-01-04T17:26:22;10.80;99.90
39219;DHT22;24934;52.752;6.964;2023-01-04T17:28:48;10.90;99.90
39219;DHT22;24934;52.752;6.964;2023-01-04T17:31:22;10.90;99.90
39219;DHT22;24934;52.752;6.964;2023-01-04T17:33:49;10.90;99.90
39219;DHT22;24934;52.752;6.964;2023-01-04T17:36:17;10.90;99.90
39219;DHT22;24934;52.752;6.964;2023-01-04T17:38:44;10.80;99.90
39219;DHT22;24934;52.752;6.964;2023-01-04T17:43:40;10.80;99.90
39219;DHT22;24934;52.752;6.964;2023-01-04T17:46:15;10.80;99.90
39219;DHT22;24934;52.752;6.964;2023-01-04T17:48:41;10.70;99.90
39219;DHT22;24934;52.752;6.964;2023-01-04T17:51:21;10.70;99.90
39219;DHT22;24934;52.752;6.964;2023-01-04T17:53:47;10.60;99.90
39219;DHT22;24934;52.752;6.964;2023-01-04T17:56:18;10.60;99.90